الصفحة الرئيسية
METAR-TAF:

METAR-TAF

مطار :

إيركوتسك, روسيا

دائرة عرض: 52-16N, خط طول: 104-19E, ارتفاع: 513 متر

مراقبة الطقس الحالي

تاريخ ووقت الإصدار 38 دقيقة قبل الساعة 15:30UTC
ريح 8 عقدة من الجنوب
درجة الحرارة 4°درجة مئوية
الرطوبة 70%
ضغط 1017 hPa
الرؤية 10 كم أو أكثر
الغيوم لا تقل 1500 م ولا وجود لمزنة ركامية السحاب الأسود

METAR: UIII 221530Z 19004MPS CAVOK 04/M01 Q1017 R12/CLRD60 NOSIG RMK QFE720/0960

زمن: 00:08 (16:08 UTC)

توقعات

تاريخ ووقت الإصدار 2ساعات و 8 دقيقة قبل الساعة 14:00UTC
التوقعات صالحة من22 الساعة 15 UTC إلى 23 الساعة 15 UTC
ريح 6 عقدة من الجنوب/الجنوب الشرقي
الرؤية 10 كم أو أكثر
الغيوم لا تقل 1500 م ولا وجود لمزنة ركامية السحاب الأسود
أصبح
من 23 الساعة 01 UTC إلى 23 الساعة 03 UTC
ريح 16 عقدة من الجنوب/الجنوب الشرقي

TAF: UIII 221400Z 2215/2315 16003MPS CAVOK BECMG 2301/2303 16008MPS

أرصاد الطقس والتوقعات من أكثر من 4000 مطار (تقارير الطقس للمطار METAR والتنبؤ بالطقس بالمطارTAF).

المحطات المتاحة هي النقط الصفراء والحمراء على الخريطة.

حرك المؤشر فوق النقطة لمعرفة اسم المحطة.

ثم انقر لمعرفة أرصاد وتوقعات الطقس.

لتغيير الخارطة: اضغط على الأزرار الخضراء مع رمز الصليب الأسود للتكبير. على الزر الأخضر مع شرطة للتصغير، أو على الأسهم الخضراء للخرائط المجاورة.


METAR-TAF: